Terminal Aerodrome Forecast
Issued by NWS Cleveland, OH

Home | Current Version | Previous Version | Text Only | Print | Product List | Glossary On
Versions: 1 2 3 4 5 6 7 8 9 10 11 12 13 14 15
161
FTUS41 KCLE 251120
TAFCAK
TAF
KCAK 251120Z 2512/2612 07008KT P6SM SKC
     FM260500 14008KT P6SM OVC250
     FM261100 18008KT P6SM OVC035=

USA.gov is the U.S. government's official web portal to all federal, state and local government web resources and services.